sensor_id;sensor_type;location;lat;lon;timestamp;pressure;altitude;pressure_sealevel;temperature;humidity
69879;BME280;57161;43.136;24.706;2023-01-29T00:01:51;99498.06;;;2.34;84.63
69879;BME280;57161;43.136;24.706;2023-01-29T00:04:17;99482.00;;;2.33;84.29
69879;BME280;57161;43.136;24.706;2023-01-29T00:06:42;99497.34;;;2.39;84.40
69879;BME280;57161;43.136;24.706;2023-01-29T00:09:09;99497.84;;;2.38;84.19
69879;BME280;57161;43.136;24.706;2023-01-29T00:11:34;99494.59;;;2.39;84.99
69879;BME280;57161;43.136;24.706;2023-01-29T00:14:00;99494.25;;;2.32;84.64
69879;BME280;57161;43.136;24.706;2023-01-29T00:16:26;99491.59;;;2.23;84.75
69879;BME280;57161;43.136;24.706;2023-01-29T00:18:51;99501.19;;;2.27;84.60
69879;BME280;57161;43.136;24.706;2023-01-29T00:21:19;99495.69;;;2.27;84.93
69879;BME280;57161;43.136;24.706;2023-01-29T00:23:46;99503.88;;;2.22;85.05
69879;BME280;57161;43.136;24.706;2023-01-29T00:26:12;99499.88;;;2.23;85.21
69879;BME280;57161;43.136;24.706;2023-01-29T00:28:38;99493.75;;;2.13;84.53
69879;BME280;57161;43.136;24.706;2023-01-29T00:31:23;99500.91;;;2.25;84.87
69879;BME280;57161;43.136;24.706;2023-01-29T00:33:50;99507.66;;;2.24;84.80
69879;BME280;57161;43.136;24.706;2023-01-29T00:36:17;99511.06;;;2.34;84.87
69879;BME280;57161;43.136;24.706;2023-01-29T00:38:43;99503.00;;;2.30;84.63
69879;BME280;57161;43.136;24.706;2023-01-29T00:41:14;99507.91;;;2.41;84.61
69879;BME280;57161;43.136;24.706;2023-01-29T00:43:59;99508.94;;;2.44;84.14
69879;BME280;57161;43.136;24.706;2023-01-29T00:46:44;99511.78;;;2.49;83.56
69879;BME280;57161;43.136;24.706;2023-01-29T00:49:10;99499.91;;;2.43;84.08
69879;BME280;57161;43.136;24.706;2023-01-29T00:51:36;99506.50;;;2.46;84.09
69879;BME280;57161;43.136;24.706;2023-01-29T00:54:02;99503.91;;;2.42;84.17
69879;BME280;57161;43.136;24.706;2023-01-29T00:56:32;99509.16;;;2.40;84.41
69879;BME280;57161;43.136;24.706;2023-01-29T00:58:58;99509.91;;;2.40;84.29
69879;BME280;57161;43.136;24.706;2023-01-29T01:01:24;99499.78;;;2.32;84.04
69879;BME280;57161;43.136;24.706;2023-01-29T01:04:09;99511.84;;;2.34;84.33
69879;BME280;57161;43.136;24.706;2023-01-29T01:06:37;99528.59;;;2.31;84.56
69879;BME280;57161;43.136;24.706;2023-01-29T01:09:03;99516.03;;;2.30;84.98
69879;BME280;57161;43.136;24.706;2023-01-29T01:11:47;99508.84;;;2.18;84.75
69879;BME280;57161;43.136;24.706;2023-01-29T01:14:12;99514.44;;;2.23;84.97
69879;BME280;57161;43.136;24.706;2023-01-29T01:16:38;99505.19;;;2.26;84.65
69879;BME280;57161;43.136;24.706;2023-01-29T01:19:04;99513.56;;;2.32;84.83
69879;BME280;57161;43.136;24.706;2023-01-29T01:21:29;99507.13;;;2.20;84.39
69879;BME280;57161;43.136;24.706;2023-01-29T01:23:55;99522.31;;;2.30;84.70
69879;BME280;57161;43.136;24.706;2023-01-29T01:26:20;99502.19;;;2.09;84.51
69879;BME280;57161;43.136;24.706;2023-01-29T01:28:45;99521.19;;;2.22;84.87
69879;BME280;57161;43.136;24.706;2023-01-29T01:31:12;99525.56;;;2.29;84.34
69879;BME280;57161;43.136;24.706;2023-01-29T01:33:38;99530.13;;;2.17;85.00
69879;BME280;57161;43.136;24.706;2023-01-29T01:36:05;99525.94;;;2.22;85.10
69879;BME280;57161;43.136;24.706;2023-01-29T01:38:36;99521.59;;;2.15;84.74
69879;BME280;57161;43.136;24.706;2023-01-29T01:41:10;99527.59;;;2.14;84.74
69879;BME280;57161;43.136;24.706;2023-01-29T01:46:16;99518.72;;;2.09;84.74
69879;BME280;57161;43.136;24.706;2023-01-29T01:48:41;99512.66;;;2.05;84.77
69879;BME280;57161;43.136;24.706;2023-01-29T01:51:09;99524.63;;;2.17;84.66
69879;BME280;57161;43.136;24.706;2023-01-29T01:53:41;99512.66;;;2.05;84.77
69879;BME280;57161;43.136;24.706;2023-01-29T01:56:12;99533.16;;;2.19;85.13
69879;BME280;57161;43.136;24.706;2023-01-29T01:58:48;99529.84;;;2.15;85.04
69879;BME280;57161;43.136;24.706;2023-01-29T02:01:16;99532.88;;;2.17;85.28
69879;BME280;57161;43.136;24.706;2023-01-29T02:03:48;99535.25;;;2.09;85.31
69879;BME280;57161;43.136;24.706;2023-01-29T02:06:34;99521.41;;;2.04;85.36
69879;BME280;57161;43.136;24.706;2023-01-29T02:09:26;99532.88;;;2.17;85.33
69879;BME280;57161;43.136;24.706;2023-01-29T02:12:09;99526.22;;;2.24;84.47
69879;BME280;57161;43.136;24.706;2023-01-29T02:14:36;99530.22;;;2.23;85.13
69879;BME280;57161;43.136;24.706;2023-01-29T02:17:09;99520.63;;;2.18;85.12
69879;BME280;57161;43.136;24.706;2023-01-29T02:34:07;99521.22;;;2.07;85.60
69879;BME280;57161;43.136;24.706;2023-01-29T02:37:17;99538.59;;;2.14;85.76
69879;BME280;57161;43.136;24.706;2023-01-29T02:39:56;99542.69;;;2.03;85.51
69879;BME280;57161;43.136;24.706;2023-01-29T02:42:34;99539.47;;;2.05;85.79
69879;BME280;57161;43.136;24.706;2023-01-29T02:45:12;99532.16;;;2.02;85.34
69879;BME280;57161;43.136;24.706;2023-01-29T02:47:59;99540.97;;;2.06;85.68
69879;BME280;57161;43.136;24.706;2023-01-29T02:50:33;99494.63;;;1.75;85.79
69879;BME280;57161;43.136;24.706;2023-01-29T02:53:03;99550.28;;;2.08;85.75
69879;BME280;57161;43.136;24.706;2023-01-29T02:55:38;99534.72;;;2.05;85.80
69879;BME280;57161;43.136;24.706;2023-01-29T03:00:40;99548.97;;;2.04;86.19
69879;BME280;57161;43.136;24.706;2023-01-29T03:03:31;99545.72;;;2.05;85.88
69879;BME280;57161;43.136;24.706;2023-01-29T03:06:08;99547.06;;;2.10;85.42
69879;BME280;57161;43.136;24.706;2023-01-29T03:08:53;99549.94;;;2.01;85.65
69879;BME280;57161;43.136;24.706;2023-01-29T03:11:20;99542.34;;;1.96;85.92
69879;BME280;57161;43.136;24.706;2023-01-29T03:13:51;99544.91;;;1.99;86.07
69879;BME280;57161;43.136;24.706;2023-01-29T03:16:22;99547.16;;;2.01;86.12
69879;BME280;57161;43.136;24.706;2023-01-29T03:19:01;99557.69;;;2.17;85.89
69879;BME280;57161;43.136;24.706;2023-01-29T03:22:01;99561.13;;;2.12;85.63
69879;BME280;57161;43.136;24.706;2023-01-29T03:27:33;99559.50;;;2.20;85.40
69879;BME280;57161;43.136;24.706;2023-01-29T03:30:21;99550.13;;;2.12;85.34
69879;BME280;57161;43.136;24.706;2023-01-29T03:33:10;99541.94;;;2.03;84.78
69879;BME280;57161;43.136;24.706;2023-01-29T03:35:40;99554.75;;;2.06;85.38
69879;BME280;57161;43.136;24.706;2023-01-29T03:38:08;99568.81;;;1.93;85.64
69879;BME280;57161;43.136;24.706;2023-01-29T03:40:48;99558.28;;;1.92;85.38
69879;BME280;57161;43.136;24.706;2023-01-29T03:51:32;99563.44;;;1.99;85.86
69879;BME280;57161;43.136;24.706;2023-01-29T03:54:14;99569.31;;;1.92;85.68
69879;BME280;57161;43.136;24.706;2023-01-29T03:59:24;99565.69;;;2.00;86.58
69879;BME280;57161;43.136;24.706;2023-01-29T04:01:55;99551.38;;;1.96;86.26
69879;BME280;57161;43.136;24.706;2023-01-29T04:04:37;99552.28;;;2.08;85.63
69879;BME280;57161;43.136;24.706;2023-01-29T04:07:23;99564.31;;;2.25;84.73
69879;BME280;57161;43.136;24.706;2023-01-29T04:09:53;99572.03;;;2.21;84.99
69879;BME280;57161;43.136;24.706;2023-01-29T04:12:25;99569.50;;;2.18;85.13
69879;BME280;57161;43.136;24.706;2023-01-29T04:14:53;99569.84;;;2.10;84.91
69879;BME280;57161;43.136;24.706;2023-01-29T04:17:27;99567.22;;;2.16;84.74
69879;BME280;57161;43.136;24.706;2023-01-29T04:19:58;99553.63;;;1.98;85.11
69879;BME280;57161;43.136;24.706;2023-01-29T04:22:32;99549.72;;;1.90;84.89
69879;BME280;57161;43.136;24.706;2023-01-29T04:25:02;99566.66;;;1.97;85.45
69879;BME280;57161;43.136;24.706;2023-01-29T04:33:03;99573.22;;;2.00;85.28
69879;BME280;57161;43.136;24.706;2023-01-29T04:35:47;99578.44;;;1.98;85.65
69879;BME280;57161;43.136;24.706;2023-01-29T04:41:28;99580.53;;;2.03;85.55
69879;BME280;57161;43.136;24.706;2023-01-29T04:49:28;99584.25;;;2.00;85.10
69879;BME280;57161;43.136;24.706;2023-01-29T04:52:08;99592.78;;;2.02;84.96
69879;BME280;57161;43.136;24.706;2023-01-29T04:57:44;99595.63;;;1.93;85.88
69879;BME280;57161;43.136;24.706;2023-01-29T05:00:17;99594.78;;;1.87;85.92
69879;BME280;57161;43.136;24.706;2023-01-29T05:02:44;99600.56;;;1.89;86.09
69879;BME280;57161;43.136;24.706;2023-01-29T05:05:12;99610.09;;;2.02;85.74
69879;BME280;57161;43.136;24.706;2023-01-29T05:07:39;99608.28;;;1.99;86.06
69879;BME280;57161;43.136;24.706;2023-01-29T05:10:09;99603.72;;;1.96;85.50
69879;BME280;57161;43.136;24.706;2023-01-29T05:12:36;99604.47;;;1.82;86.08
69879;BME280;57161;43.136;24.706;2023-01-29T05:15:08;99609.22;;;1.82;86.65
69879;BME280;57161;43.136;24.706;2023-01-29T05:17:36;99598.97;;;1.82;86.76
69879;BME280;57161;43.136;24.706;2023-01-29T05:20:02;99604.84;;;1.90;86.24
69879;BME280;57161;43.136;24.706;2023-01-29T05:22:28;99609.69;;;1.95;85.96
69879;BME280;57161;43.136;24.706;2023-01-29T05:24:54;99617.19;;;2.09;85.91
69879;BME280;57161;43.136;24.706;2023-01-29T05:27:24;99631.25;;;2.11;85.10
69879;BME280;57161;43.136;24.706;2023-01-29T05:30:12;99581.53;;;1.61;85.69
69879;BME280;57161;43.136;24.706;2023-01-29T05:32:38;99617.22;;;1.79;86.32
69879;BME280;57161;43.136;24.706;2023-01-29T05:35:04;99630.97;;;1.94;85.94
69879;BME280;57161;43.136;24.706;2023-01-29T05:37:30;99626.25;;;1.80;86.27
69879;BME280;57161;43.136;24.706;2023-01-29T05:39:55;99586.78;;;1.59;86.60
69879;BME280;57161;43.136;24.706;2023-01-29T05:42:21;99634.13;;;2.02;85.97
69879;BME280;57161;43.136;24.706;2023-01-29T05:44:46;99637.84;;;1.99;86.07
69879;BME280;57161;43.136;24.706;2023-01-29T05:47:12;99646.97;;;2.05;85.61
69879;BME280;57161;43.136;24.706;2023-01-29T05:49:37;99626.22;;;1.95;85.59
69879;BME280;57161;43.136;24.706;2023-01-29T05:52:03;99631.66;;;1.89;86.07
69879;BME280;57161;43.136;24.706;2023-01-29T05:54:28;99662.44;;;2.02;85.71
69879;BME280;57161;43.136;24.706;2023-01-29T05:56:54;99652.56;;;1.96;85.66
69879;BME280;57161;43.136;24.706;2023-01-29T05:59:19;99655.34;;;1.96;86.17
69879;BME280;57161;43.136;24.706;2023-01-29T06:01:44;99653.34;;;1.96;86.47
69879;BME280;57161;43.136;24.706;2023-01-29T06:04:10;99651.03;;;1.95;85.45
69879;BME280;57161;43.136;24.706;2023-01-29T06:06:35;99648.38;;;2.00;85.42
69879;BME280;57161;43.136;24.706;2023-01-29T06:09:01;99668.34;;;2.10;85.79
69879;BME280;57161;43.136;24.706;2023-01-29T06:11:26;99667.69;;;2.00;85.13
69879;BME280;57161;43.136;24.706;2023-01-29T06:13:52;99663.41;;;1.99;85.34
69879;BME280;57161;43.136;24.706;2023-01-29T06:16:17;99660.47;;;2.03;85.12
69879;BME280;57161;43.136;24.706;2023-01-29T06:18:43;99666.81;;;2.09;85.38
69879;BME280;57161;43.136;24.706;2023-01-29T06:21:11;99663.22;;;2.03;85.29
69879;BME280;57161;43.136;24.706;2023-01-29T06:23:37;99673.00;;;2.19;85.20
69879;BME280;57161;43.136;24.706;2023-01-29T06:26:06;99677.66;;;2.27;85.04
69879;BME280;57161;43.136;24.706;2023-01-29T06:28:31;99676.44;;;2.14;84.63
69879;BME280;57161;43.136;24.706;2023-01-29T06:30:57;99693.63;;;2.23;84.95
69879;BME280;57161;43.136;24.706;2023-01-29T06:33:24;99674.16;;;2.12;84.93
69879;BME280;57161;43.136;24.706;2023-01-29T06:35:58;99681.00;;;2.31;84.44
69879;BME280;57161;43.136;24.706;2023-01-29T06:38:24;99696.88;;;2.36;84.13
69879;BME280;57161;43.136;24.706;2023-01-29T06:40:50;99687.56;;;2.34;83.93
69879;BME280;57161;43.136;24.706;2023-01-29T06:43:16;99689.66;;;2.39;84.00
69879;BME280;57161;43.136;24.706;2023-01-29T06:45:53;99700.41;;;2.37;83.65
69879;BME280;57161;43.136;24.706;2023-01-29T06:48:19;99699.25;;;2.29;84.14
69879;BME280;57161;43.136;24.706;2023-01-29T06:50:45;99694.31;;;2.18;84.33
69879;BME280;57161;43.136;24.706;2023-01-29T06:53:12;99706.78;;;2.28;85.31
69879;BME280;57161;43.136;24.706;2023-01-29T06:55:37;99719.63;;;2.31;84.82
69879;BME280;57161;43.136;24.706;2023-01-29T06:58:10;99711.50;;;2.42;84.32
69879;BME280;57161;43.136;24.706;2023-01-29T07:00:36;99718.38;;;2.47;84.34
69879;BME280;57161;43.136;24.706;2023-01-29T07:03:02;99714.00;;;2.40;84.22
69879;BME280;57161;43.136;24.706;2023-01-29T07:05:28;99704.38;;;2.21;84.07
69879;BME280;57161;43.136;24.706;2023-01-29T07:07:54;99703.63;;;2.21;84.66
69879;BME280;57161;43.136;24.706;2023-01-29T07:10:20;99725.50;;;2.24;84.73
69879;BME280;57161;43.136;24.706;2023-01-29T07:12:45;99722.72;;;2.24;85.13
69879;BME280;57161;43.136;24.706;2023-01-29T07:15:11;99712.75;;;2.12;85.35
69879;BME280;57161;43.136;24.706;2023-01-29T07:17:44;99728.06;;;2.28;85.40
69879;BME280;57161;43.136;24.706;2023-01-29T07:20:10;99729.59;;;2.29;85.32
69879;BME280;57161;43.136;24.706;2023-01-29T07:22:35;99723.78;;;2.27;85.02
69879;BME280;57161;43.136;24.706;2023-01-29T07:25:01;99724.25;;;2.25;84.95
69879;BME280;57161;43.136;24.706;2023-01-29T07:27:26;99732.53;;;2.25;85.39
69879;BME280;57161;43.136;24.706;2023-01-29T07:29:52;99719.63;;;2.31;85.35
69879;BME280;57161;43.136;24.706;2023-01-29T07:32:17;99734.16;;;2.47;85.25
69879;BME280;57161;43.136;24.706;2023-01-29T07:34:43;99737.22;;;2.49;84.50
69879;BME280;57161;43.136;24.706;2023-01-29T07:37:08;99749.38;;;2.57;84.66
69879;BME280;57161;43.136;24.706;2023-01-29T07:39:33;99738.25;;;2.51;84.20
69879;BME280;57161;43.136;24.706;2023-01-29T07:41:59;99752.25;;;2.62;83.96
69879;BME280;57161;43.136;24.706;2023-01-29T07:44:25;99753.09;;;2.68;83.08
69879;BME280;57161;43.136;24.706;2023-01-29T07:46:50;99742.72;;;2.49;83.57
69879;BME280;57161;43.136;24.706;2023-01-29T07:49:16;99757.00;;;2.62;84.09
69879;BME280;57161;43.136;24.706;2023-01-29T07:51:41;99763.38;;;2.53;84.49
69879;BME280;57161;43.136;24.706;2023-01-29T07:54:07;99755.00;;;2.62;83.66
69879;BME280;57161;43.136;24.706;2023-01-29T07:56:32;99745.28;;;2.52;83.94
69879;BME280;57161;43.136;24.706;2023-01-29T07:58:58;99767.09;;;2.65;83.73
69879;BME280;57161;43.136;24.706;2023-01-29T08:01:23;99758.53;;;2.63;83.25
69879;BME280;57161;43.136;24.706;2023-01-29T08:03:49;99739.22;;;2.48;83.44
69879;BME280;57161;43.136;24.706;2023-01-29T08:06:14;99756.81;;;2.65;83.57
69879;BME280;57161;43.136;24.706;2023-01-29T08:08:40;99769.44;;;2.87;83.25
69879;BME280;57161;43.136;24.706;2023-01-29T08:11:05;99768.97;;;2.88;82.92
69879;BME280;57161;43.136;24.706;2023-01-29T08:13:31;99773.66;;;2.82;82.45
69879;BME280;57161;43.136;24.706;2023-01-29T08:16:02;99774.41;;;2.83;82.63
69879;BME280;57161;43.136;24.706;2023-01-29T08:18:28;99761.16;;;2.57;83.16
69879;BME280;57161;43.136;24.706;2023-01-29T08:21:01;99772.59;;;2.65;83.44
69879;BME280;57161;43.136;24.706;2023-01-29T08:23:27;99784.00;;;2.87;82.54
69879;BME280;57161;43.136;24.706;2023-01-29T08:25:53;99786.88;;;2.93;82.50
69879;BME280;57161;43.136;24.706;2023-01-29T08:28:18;99781.53;;;2.89;81.71
69879;BME280;57161;43.136;24.706;2023-01-29T08:30:44;99786.75;;;2.87;82.15
69879;BME280;57161;43.136;24.706;2023-01-29T08:33:10;99788.84;;;2.92;82.46
69879;BME280;57161;43.136;24.706;2023-01-29T08:35:36;99779.63;;;2.95;81.82
69879;BME280;57161;43.136;24.706;2023-01-29T08:38:03;99793.69;;;3.12;81.65
69879;BME280;57161;43.136;24.706;2023-01-29T08:40:30;99801.50;;;3.14;81.62
69879;BME280;57161;43.136;24.706;2023-01-29T08:42:58;99795.78;;;3.17;81.68
69879;BME280;57161;43.136;24.706;2023-01-29T08:45:23;99787.91;;;2.95;81.43
69879;BME280;57161;43.136;24.706;2023-01-29T08:47:49;99797.72;;;2.96;82.09
69879;BME280;57161;43.136;24.706;2023-01-29T08:50:15;99804.06;;;3.03;81.92
69879;BME280;57161;43.136;24.706;2023-01-29T08:52:42;99804.63;;;3.07;82.04
69879;BME280;57161;43.136;24.706;2023-01-29T08:55:08;99811.31;;;3.15;81.33
69879;BME280;57161;43.136;24.706;2023-01-29T08:57:34;99799.78;;;3.16;80.98
69879;BME280;57161;43.136;24.706;2023-01-29T08:59:59;99800.34;;;3.20;80.55
69879;BME280;57161;43.136;24.706;2023-01-29T09:02:25;99805.31;;;3.16;81.09
69879;BME280;57161;43.136;24.706;2023-01-29T09:04:50;99809.78;;;3.14;81.26
69879;BME280;57161;43.136;24.706;2023-01-29T09:07:16;99803.03;;;3.15;81.48
69879;BME280;57161;43.136;24.706;2023-01-29T09:09:41;99793.13;;;3.08;80.92
69879;BME280;57161;43.136;24.706;2023-01-29T09:12:07;99801.41;;;3.08;81.16
69879;BME280;57161;43.136;24.706;2023-01-29T09:14:32;99784.56;;;3.06;80.71
69879;BME280;57161;43.136;24.706;2023-01-29T09:16:58;99802.81;;;3.18;80.58
69879;BME280;57161;43.136;24.706;2023-01-29T09:19:23;99783.22;;;3.01;81.57
69879;BME280;57161;43.136;24.706;2023-01-29T09:21:49;99786.94;;;3.13;81.45
69879;BME280;57161;43.136;24.706;2023-01-29T09:24:15;99789.22;;;3.15;80.92
69879;BME280;57161;43.136;24.706;2023-01-29T09:26:40;99774.66;;;2.99;81.01
69879;BME280;57161;43.136;24.706;2023-01-29T09:29:06;99790.47;;;3.14;81.09
69879;BME280;57161;43.136;24.706;2023-01-29T09:31:31;99792.56;;;3.04;80.74
69879;BME280;57161;43.136;24.706;2023-01-29T09:33:57;99776.75;;;3.05;81.54
69879;BME280;57161;43.136;24.706;2023-01-29T09:36:23;99781.97;;;3.17;80.74
69879;BME280;57161;43.136;24.706;2023-01-29T09:38:48;99769.34;;;3.11;80.70
69879;BME280;57161;43.136;24.706;2023-01-29T09:44:23;99779.13;;;3.12;81.38
69879;BME280;57161;43.136;24.706;2023-01-29T09:46:52;99778.84;;;3.10;81.25
69879;BME280;57161;43.136;24.706;2023-01-29T09:49:27;99780.38;;;3.11;81.34
69879;BME280;57161;43.136;24.706;2023-01-29T09:52:04;99769.84;;;2.94;81.59
69879;BME280;57161;43.136;24.706;2023-01-29T09:57:14;99776.88;;;2.95;81.63
69879;BME280;57161;43.136;24.706;2023-01-29T09:59:43;99766.47;;;2.90;82.06
69879;BME280;57161;43.136;24.706;2023-01-29T10:11:16;99748.59;;;3.00;81.07
69879;BME280;57161;43.136;24.706;2023-01-29T10:13:43;99763.81;;;3.11;80.84
69879;BME280;57161;43.136;24.706;2023-01-29T10:26:54;99752.81;;;3.31;81.01
69879;BME280;57161;43.136;24.706;2023-01-29T10:29:20;99752.22;;;3.42;81.21
69879;BME280;57161;43.136;24.706;2023-01-29T10:31:51;99750.81;;;3.52;80.50
69879;BME280;57161;43.136;24.706;2023-01-29T10:34:24;99751.03;;;3.48;79.10
69879;BME280;57161;43.136;24.706;2023-01-29T10:36:53;99736.16;;;3.25;79.72
69879;BME280;57161;43.136;24.706;2023-01-29T10:39:23;99747.56;;;3.33;79.71
69879;BME280;57161;43.136;24.706;2023-01-29T10:47:45;99744.25;;;3.49;80.09
69879;BME280;57161;43.136;24.706;2023-01-29T10:50:30;99727.13;;;3.45;79.09
69879;BME280;57161;43.136;24.706;2023-01-29T10:53:29;99737.16;;;3.63;79.07
69879;BME280;57161;43.136;24.706;2023-01-29T10:56:54;99734.47;;;3.69;78.16
69879;BME280;57161;43.136;24.706;2023-01-29T10:59:03;99732.72;;;3.51;79.42
69879;BME280;57161;43.136;24.706;2023-01-29T11:01:31;99716.16;;;3.51;79.56
69879;BME280;57161;43.136;24.706;2023-01-29T11:03:59;99724.09;;;3.64;80.70
69879;BME280;57161;43.136;24.706;2023-01-29T11:06:31;99712.56;;;3.65;79.83
69879;BME280;57161;43.136;24.706;2023-01-29T11:09:09;99721.13;;;3.67;79.09
69879;BME280;57161;43.136;24.706;2023-01-29T11:11:45;99711.94;;;3.76;79.05
69879;BME280;57161;43.136;24.706;2023-01-29T11:14:18;99712.75;;;3.82;78.26
69879;BME280;57161;43.136;24.706;2023-01-29T11:16:47;99705.34;;;3.94;78.45
69879;BME280;57161;43.136;24.706;2023-01-29T11:19:14;99711.97;;;4.02;77.85
69879;BME280;57161;43.136;24.706;2023-01-29T11:21:59;99706.50;;;4.07;78.29
69879;BME280;57161;43.136;24.706;2023-01-29T11:24:26;99701.94;;;4.04;77.98
69879;BME280;57161;43.136;24.706;2023-01-29T11:26:54;99703.34;;;3.94;77.82
69879;BME280;57161;43.136;24.706;2023-01-29T11:37:31;99686.72;;;3.68;78.94
69879;BME280;57161;43.136;24.706;2023-01-29T11:39:57;99684.16;;;3.65;79.13
69879;BME280;57161;43.136;24.706;2023-01-29T11:42:22;99675.31;;;3.40;79.50
69879;BME280;57161;43.136;24.706;2023-01-29T11:44:48;99629.63;;;3.19;80.08
69879;BME280;57161;43.136;24.706;2023-01-29T11:47:24;99662.34;;;3.46;80.03
69879;BME280;57161;43.136;24.706;2023-01-29T11:49:59;99669.88;;;3.46;79.48
69879;BME280;57161;43.136;24.706;2023-01-29T11:52:52;99677.13;;;3.64;79.65
69879;BME280;57161;43.136;24.706;2023-01-29T11:55:22;99678.16;;;3.66;78.87
69879;BME280;57161;43.136;24.706;2023-01-29T11:58:15;99668.47;;;3.76;78.87
69879;BME280;57161;43.136;24.706;2023-01-29T12:00:45;99660.06;;;3.65;78.52
69879;BME280;57161;43.136;24.706;2023-01-29T12:04:01;99672.59;;;3.86;78.18
69879;BME280;57161;43.136;24.706;2023-01-29T12:06:33;99667.47;;;4.00;77.61
69879;BME280;57161;43.136;24.706;2023-01-29T12:09:02;99656.94;;;4.04;76.68
69879;BME280;57161;43.136;24.706;2023-01-29T12:11:33;99640.13;;;3.81;77.16
69879;BME280;57161;43.136;24.706;2023-01-29T12:14:01;99665.22;;;4.04;77.40
69879;BME280;57161;43.136;24.706;2023-01-29T12:16:50;99665.78;;;4.08;77.74
69879;BME280;57161;43.136;24.706;2023-01-29T12:19:40;99650.66;;;4.03;77.10
69879;BME280;57161;43.136;24.706;2023-01-29T12:25:10;99675.31;;;3.81;78.19
69879;BME280;57161;43.136;24.706;2023-01-29T12:27:48;99678.06;;;3.81;78.45
69879;BME280;57161;43.136;24.706;2023-01-29T12:35:46;99660.88;;;3.51;78.97
69879;BME280;57161;43.136;24.706;2023-01-29T12:38:19;99682.94;;;3.45;78.87
69879;BME280;57161;43.136;24.706;2023-01-29T12:40:52;99686.84;;;3.39;79.44
69879;BME280;57161;43.136;24.706;2023-01-29T12:43:34;99683.69;;;3.46;79.13
69879;BME280;57161;43.136;24.706;2023-01-29T12:46:07;99669.66;;;3.49;79.10
69879;BME280;57161;43.136;24.706;2023-01-29T12:48:38;99671.66;;;3.49;79.10
69879;BME280;57161;43.136;24.706;2023-01-29T12:51:15;99671.53;;;3.58;79.44
69879;BME280;57161;43.136;24.706;2023-01-29T12:53:48;99663.44;;;3.54;78.10
69879;BME280;57161;43.136;24.706;2023-01-29T12:56:38;99681.25;;;3.53;79.00
69879;BME280;57161;43.136;24.706;2023-01-29T12:59:42;99669.31;;;3.62;78.83
69879;BME280;57161;43.136;24.706;2023-01-29T13:02:41;99680.16;;;3.66;78.19
69879;BME280;57161;43.136;24.706;2023-01-29T13:05:36;99678.63;;;3.65;78.16
69879;BME280;57161;43.136;24.706;2023-01-29T13:08:10;99673.34;;;3.61;79.16
69879;BME280;57161;43.136;24.706;2023-01-29T13:10:42;99686.94;;;3.65;78.86
69879;BME280;57161;43.136;24.706;2023-01-29T13:15:57;99687.25;;;3.72;78.85
69879;BME280;57161;43.136;24.706;2023-01-29T13:21:21;99689.97;;;3.67;77.36
69879;BME280;57161;43.136;24.706;2023-01-29T13:23:49;99687.69;;;3.65;78.23
69879;BME280;57161;43.136;24.706;2023-01-29T13:26:20;99688.50;;;3.71;78.47
69879;BME280;57161;43.136;24.706;2023-01-29T13:28:47;99681.47;;;3.70;78.08
69879;BME280;57161;43.136;24.706;2023-01-29T13:34:15;99679.53;;;3.76;77.57
69879;BME280;57161;43.136;24.706;2023-01-29T13:36:48;99676.88;;;3.87;77.35
69879;BME280;57161;43.136;24.706;2023-01-29T13:39:35;99683.72;;;3.92;77.37
69879;BME280;57161;43.136;24.706;2023-01-29T13:42:17;99675.97;;;3.96;77.39
69879;BME280;57161;43.136;24.706;2023-01-29T13:44:49;99686.31;;;4.01;77.61
69879;BME280;57161;43.136;24.706;2023-01-29T13:47:35;99684.09;;;4.05;77.30
69879;BME280;57161;43.136;24.706;2023-01-29T13:50:49;99667.19;;;3.98;77.11
69879;BME280;57161;43.136;24.706;2023-01-29T13:53:19;99698.00;;;4.11;77.22
69879;BME280;57161;43.136;24.706;2023-01-29T13:55:46;99683.56;;;4.01;76.63
69879;BME280;57161;43.136;24.706;2023-01-29T13:58:16;99693.09;;;4.00;76.25
69879;BME280;57161;43.136;24.706;2023-01-29T14:05:55;99693.53;;;3.93;76.95
69879;BME280;57161;43.136;24.706;2023-01-29T14:13:46;99693.91;;;4.06;76.42
69879;BME280;57161;43.136;24.706;2023-01-29T14:21:22;99691.00;;;4.15;76.62
69879;BME280;57161;43.136;24.706;2023-01-29T14:23:54;99694.03;;;4.17;75.96
69879;BME280;57161;43.136;24.706;2023-01-29T14:28:56;99691.72;;;4.10;76.20
69879;BME280;57161;43.136;24.706;2023-01-29T14:36:46;99683.16;;;4.08;75.48
69879;BME280;57161;43.136;24.706;2023-01-29T14:39:35;99696.25;;;4.13;75.67
69879;BME280;57161;43.136;24.706;2023-01-29T14:42:04;99695.00;;;4.14;75.41
69879;BME280;57161;43.136;24.706;2023-01-29T14:49:58;99695.81;;;4.20;75.99
69879;BME280;57161;43.136;24.706;2023-01-29T14:52:32;99702.88;;;4.21;76.09
69879;BME280;57161;43.136;24.706;2023-01-29T14:55:02;99708.13;;;4.19;76.13
69879;BME280;57161;43.136;24.706;2023-01-29T14:57:30;99683.41;;;4.10;76.25
69879;BME280;57161;43.136;24.706;2023-01-29T15:00:12;99707.63;;;4.21;75.47
69879;BME280;57161;43.136;24.706;2023-01-29T15:02:42;99716.69;;;4.21;75.73
69879;BME280;57161;43.136;24.706;2023-01-29T15:05:16;99708.34;;;4.16;76.26
69879;BME280;57161;43.136;24.706;2023-01-29T15:07:52;99709.16;;;4.22;76.09
69879;BME280;57161;43.136;24.706;2023-01-29T15:10:20;99707.63;;;4.21;75.83
69879;BME280;57161;43.136;24.706;2023-01-29T15:12:55;99679.13;;;4.09;75.96
69879;BME280;57161;43.136;24.706;2023-01-29T15:21:03;99693.28;;;4.17;76.34
69879;BME280;57161;43.136;24.706;2023-01-29T15:23:30;99704.56;;;4.13;76.39
69879;BME280;57161;43.136;24.706;2023-01-29T15:26:01;99684.84;;;4.06;76.42
69879;BME280;57161;43.136;24.706;2023-01-29T15:28:28;99686.19;;;4.10;76.79
69879;BME280;57161;43.136;24.706;2023-01-29T15:30:59;99709.59;;;4.15;76.34
69879;BME280;57161;43.136;24.706;2023-01-29T15:33:26;99695.16;;;4.05;76.68
69879;BME280;57161;43.136;24.706;2023-01-29T15:35:57;99694.78;;;4.18;76.36
69879;BME280;57161;43.136;24.706;2023-01-29T15:38:24;99696.00;;;4.11;76.27
69879;BME280;57161;43.136;24.706;2023-01-29T15:41:17;99694.97;;;4.09;76.84
69879;BME280;57161;43.136;24.706;2023-01-29T15:43:47;99699.50;;;4.12;77.38